You are not logged in, Click here to log in
鹽湖城國際機場SLC / KSLC 美國猶他州鹽湖城以西大約6.4公里的機場
ICAO: KSLC Country: 美國猶他州鹽湖城以西大約6.4公里的機場
Latitude: 40.7884 Longitude: -111.978
Total Arrivals: 6 Total Departures: 5
Latest Arrival: FS29 (KMSP-KSLC)ALAN. LIU Latest Departure: DL1957 (KSLC-KSEA)ALAN. LIU
Scenery: http://forums.x-plane.org/index.php?/files/file/11854-kslc-salt-lake-city-international-airport/
METAR : KSLC 080233Z 00000KT 1/8SM R16L/1800V3500FT FG VV002 01/01 A3002 RMK AO2 T00060006 $

鹽湖城國際機場SLC